Time;durP1;ratioP1;P1;durP2;ratioP2;P2;SDS_P1;SDS_P2;PMS_P1;PMS_P2;Temp;Humidity;BMP_temperature;BMP_pressure;BME280_temperature;BME280_humidity;BME280_pressure;Samples;Min_cycle;Max_cycle;Signal;HPM_P1;HPM_P2
2022/03/26 00:00:40;;;;;;;49.17;23.25;;;;;;;8.61;55.48;100210.94;5067504;28;20033;-79
2022/03/26 00:03:05;;;;;;;46.78;25.13;;;;;;;8.60;56.19;100206.66;5056157;28;20028;-79
2022/03/26 00:05:31;;;;;;;46.15;26.35;;;;;;;8.51;56.53;100197.22;5077885;28;20085;-79
2022/03/26 00:07:56;;;;;;;42.97;23.17;;;;;;;8.56;55.86;100205.41;5065539;28;20036;-79
2022/03/26 00:10:21;;;;;;;41.92;23.95;;;;;;;8.51;55.59;100207.88;5057153;28;20043;-79
2022/03/26 00:12:47;;;;;;;50.65;26.17;;;;;;;8.43;56.04;100202.72;5064409;28;20466;-79
2022/03/26 00:15:12;;;;;;;41.72;23.95;;;;;;;8.41;56.18;100206.63;5066802;28;20036;-79
2022/03/26 00:17:38;;;;;;;44.80;25.70;;;;;;;8.42;55.60;100201.09;5066095;28;20099;-79
2022/03/26 00:20:05;;;;;;;44.38;24.52;;;;;;;8.44;56.01;100211.53;5079710;28;20037;-79
2022/03/26 00:22:30;;;;;;;46.22;25.58;;;;;;;8.43;55.69;100208.03;5067656;28;20468;-79
2022/03/26 00:24:56;;;;;;;44.85;25.25;;;;;;;8.38;56.40;100197.19;5074923;28;20149;-78
2022/03/26 00:27:21;;;;;;;42.92;25.08;;;;;;;8.40;56.69;100207.63;5066410;28;20037;-79
2022/03/26 00:29:46;;;;;;;43.30;24.35;;;;;;;8.39;55.86;100208.66;5067255;28;20042;-79
2022/03/26 00:32:12;;;;;;;43.67;25.60;;;;;;;8.34;56.64;100203.13;5068216;28;20487;-79
2022/03/26 00:34:38;;;;;;;52.45;26.08;;;;;;;8.29;56.31;100203.72;5072690;28;20028;-79
2022/03/26 00:37:04;;;;;;;49.45;27.80;;;;;;;8.24;56.40;100212.25;5070283;28;20024;-79
2022/03/26 00:39:29;;;;;;;48.45;26.00;;;;;;;8.21;56.60;100209.19;5074260;28;20028;-79
2022/03/26 00:41:55;;;;;;;52.83;27.33;;;;;;;8.22;56.09;100213.47;5088338;28;20492;-79
2022/03/26 00:44:20;;;;;;;49.63;25.60;;;;;;;8.19;56.48;100211.22;5059094;28;20036;-79
2022/03/26 00:46:46;;;;;;;43.58;25.83;;;;;;;8.23;55.96;100221.25;5081398;28;20032;-79
2022/03/26 00:49:12;;;;;;;45.75;25.90;;;;;;;8.20;55.91;100212.84;5068212;28;20151;-79
2022/03/26 00:51:38;;;;;;;46.72;25.75;;;;;;;8.20;55.98;100215.50;5067490;28;20028;-79
2022/03/26 00:54:04;;;;;;;52.08;26.30;;;;;;;8.19;56.04;100216.56;5072375;28;20056;-79
2022/03/26 00:56:29;;;;;;;42.78;25.48;;;;;;;8.17;55.97;100207.91;5061610;28;20181;-79
2022/03/26 00:58:54;;;;;;;52.95;27.23;;;;;;;8.10;56.63;100204.44;5065115;28;20491;-79
2022/03/26 01:01:20;;;;;;;52.58;26.13;;;;;;;8.07;56.35;100212.81;5060696;28;20029;-79
2022/03/26 01:03:45;;;;;;;50.83;27.10;;;;;;;8.11;56.13;100208.72;5060102;28;20032;-79
2022/03/26 01:06:11;;;;;;;45.40;25.60;;;;;;;8.09;55.96;100213.44;5058244;28;20029;-79
2022/03/26 01:08:38;;;;;;;47.95;25.50;;;;;;;8.06;56.61;100208.53;5046557;28;20198;-79
2022/03/26 01:11:03;;;;;;;48.60;25.42;;;;;;;8.00;56.34;100214.59;5045626;28;20111;-79
2022/03/26 01:13:30;;;;;;;41.83;26.20;;;;;;;7.95;56.45;100211.75;5062022;28;20124;-79
2022/03/26 01:15:55;;;;;;;46.45;26.23;;;;;;;7.91;56.71;100208.66;5049972;28;20029;-79
2022/03/26 01:18:22;;;;;;;41.67;23.40;;;;;;;7.91;56.29;100210.47;5031367;28;20036;-79
2022/03/26 01:20:47;;;;;;;48.90;24.85;;;;;;;7.97;56.38;100212.38;5032980;28;20369;-79
2022/03/26 01:23:12;;;;;;;48.85;25.38;;;;;;;7.90;57.04;100207.03;5057692;28;20044;-79
2022/03/26 01:25:38;;;;;;;43.88;25.52;;;;;;;7.90;56.71;100209.69;5046269;28;20037;-79
2022/03/26 01:28:03;;;;;;;44.72;26.27;;;;;;;7.87;57.21;100204.75;5045199;28;20115;-79
2022/03/26 01:30:29;;;;;;;41.88;23.92;;;;;;;7.85;56.54;100208.63;5054577;28;20092;-79
2022/03/26 01:32:55;;;;;;;48.67;25.67;;;;;;;7.81;56.62;100202.06;5074562;28;20477;-79
2022/03/26 01:35:21;;;;;;;42.05;25.95;;;;;;;7.82;57.16;100204.50;5061223;28;20126;-79
2022/03/26 01:37:46;;;;;;;48.40;25.75;;;;;;;7.81;57.25;100202.06;5060516;28;20569;-79
2022/03/26 01:40:12;;;;;;;49.63;24.33;;;;;;;7.81;57.10;100208.19;5076341;28;20040;-78
2022/03/26 01:42:37;;;;;;;45.92;25.25;;;;;;;7.80;56.71;100203.88;5046703;28;20850;-79
2022/03/26 01:45:03;;;;;;;41.47;24.42;;;;;;;7.77;56.61;100201.66;5065021;28;20028;-79
2022/03/26 01:47:29;;;;;;;44.08;23.65;;;;;;;7.73;56.39;100196.91;5060127;28;20028;-79
2022/03/26 01:49:54;;;;;;;45.30;25.15;;;;;;;7.71;57.45;100191.78;5062491;28;20101;-79
2022/03/26 01:52:19;;;;;;;42.85;25.17;;;;;;;7.69;57.52;100201.78;5057958;28;20029;-79
2022/03/26 01:54:45;;;;;;;47.13;25.17;;;;;;;7.67;56.85;100195.03;5086347;28;20029;-79
2022/03/26 01:57:10;;;;;;;46.03;24.48;;;;;;;7.69;56.95;100201.00;5056660;28;20537;-79
2022/03/26 01:59:37;;;;;;;44.92;25.00;;;;;;;7.64;57.06;100182.16;5060478;28;20027;-79
2022/03/26 02:02:03;;;;;;;43.63;25.13;;;;;;;7.64;56.90;100195.44;5057473;28;21150;-79
2022/03/26 02:04:28;;;;;;;44.60;25.63;;;;;;;7.56;57.01;100183.94;5076002;28;20828;-79
2022/03/26 02:06:54;;;;;;;45.60;24.27;;;;;;;7.58;57.06;100192.53;5077910;28;20032;-79
2022/03/26 02:09:20;;;;;;;47.10;26.23;;;;;;;7.58;57.05;100199.69;5051253;28;20091;-79
2022/03/26 02:11:46;;;;;;;44.72;24.42;;;;;;;7.55;57.11;100189.47;5031571;28;20128;-78
2022/03/26 02:14:13;;;;;;;48.35;25.83;;;;;;;7.57;57.25;100188.25;5069896;28;20158;-79
2022/03/26 02:16:40;;;;;;;43.95;24.73;;;;;;;7.54;57.52;100188.63;5029905;28;20510;-79
2022/03/26 02:19:07;;;;;;;38.85;23.45;;;;;;;7.53;56.63;100184.31;5060573;28;20145;-79
2022/03/26 02:21:34;;;;;;;55.72;28.75;;;;;;;7.51;56.79;100182.91;5071057;28;20032;-79
2022/03/26 02:24:00;;;;;;;42.38;24.27;;;;;;;7.51;56.82;100178.38;5071386;28;20024;-79
2022/03/26 02:26:28;;;;;;;49.17;25.25;;;;;;;7.42;57.23;100184.91;5073280;28;20024;-79
2022/03/26 02:28:56;;;;;;;51.00;25.45;;;;;;;7.39;57.23;100176.47;5071800;28;20024;-79
2022/03/26 02:31:22;;;;;;;47.45;25.95;;;;;;;7.43;57.08;100191.00;5060803;28;20082;-79
2022/03/26 02:33:48;;;;;;;46.03;25.40;;;;;;;7.40;56.92;100197.53;5052940;28;20157;-79
2022/03/26 02:36:13;;;;;;;46.58;25.70;;;;;;;7.43;57.23;100191.84;5071583;28;20052;-79
2022/03/26 02:38:39;;;;;;;43.88;24.65;;;;;;;7.37;57.39;100186.50;5066631;28;20036;-79
2022/03/26 02:41:06;;;;;;;50.83;26.48;;;;;;;7.36;57.95;100190.19;5067946;28;20496;-79
2022/03/26 02:43:32;;;;;;;40.40;24.27;;;;;;;7.37;57.41;100205.91;5068592;28;20488;-79
2022/03/26 02:45:58;;;;;;;51.13;27.15;;;;;;;7.31;57.42;100193.41;5063523;28;20031;-79
2022/03/26 02:48:23;;;;;;;46.38;24.60;;;;;;;7.29;57.14;100202.59;5062297;28;20021;-79
2022/03/26 02:50:49;;;;;;;43.58;25.67;;;;;;;7.34;57.57;100194.84;5053741;28;20036;-79
2022/03/26 02:53:14;;;;;;;44.63;25.77;;;;;;;7.28;57.22;100192.97;5052062;28;20035;-79
2022/03/26 02:55:40;;;;;;;47.92;27.05;;;;;;;7.25;57.38;100191.50;5061536;28;20036;-79
2022/03/26 02:58:07;;;;;;;44.25;24.85;;;;;;;7.21;57.77;100192.09;5062321;28;20037;-79
2022/03/26 03:00:33;;;;;;;49.65;26.30;;;;;;;7.18;57.48;100193.31;5065207;28;20063;-78
2022/03/26 03:02:59;;;;;;;44.55;24.98;;;;;;;7.13;57.69;100192.25;5042436;28;20025;-78
2022/03/26 03:05:24;;;;;;;46.00;25.23;;;;;;;7.19;57.95;100192.28;5041344;28;20111;-79
2022/03/26 03:07:50;;;;;;;42.67;24.80;;;;;;;7.23;57.60;100190.09;5048050;28;20035;-79
2022/03/26 03:10:17;;;;;;;45.33;25.52;;;;;;;7.12;57.57;100188.75;5059060;28;20017;-79
2022/03/26 03:12:44;;;;;;;46.83;25.55;;;;;;;7.15;57.63;100187.56;5067772;28;20040;-78
2022/03/26 03:15:13;;;;;;;40.15;24.13;;;;;;;7.09;57.60;100185.69;5071560;28;20044;-79
2022/03/26 03:17:39;;;;;;;49.20;26.63;;;;;;;7.06;58.25;100192.19;5063630;28;20357;-79
2022/03/26 03:20:06;;;;;;;49.38;25.98;;;;;;;7.15;57.71;100190.22;5063488;28;20032;-79
2022/03/26 03:22:32;;;;;;;46.50;25.42;;;;;;;7.06;57.59;100186.88;5049750;28;20029;-79
2022/03/26 03:24:58;;;;;;;50.60;26.88;;;;;;;7.02;58.02;100185.63;5060231;28;20029;-79
2022/03/26 03:27:23;;;;;;;45.33;25.48;;;;;;;7.06;57.58;100184.22;5065673;28;20035;-79
2022/03/26 03:29:49;;;;;;;50.35;26.67;;;;;;;6.98;57.99;100184.38;5052724;28;20032;-79
2022/03/26 03:32:14;;;;;;;41.58;25.08;;;;;;;6.97;58.45;100182.72;5070208;28;20032;-79
2022/03/26 03:34:40;;;;;;;46.35;24.45;;;;;;;6.98;57.70;100176.41;5064921;28;20027;-79
2022/03/26 03:37:05;;;;;;;44.22;25.15;;;;;;;6.93;57.87;100178.00;5028837;28;20037;-78
2022/03/26 03:39:31;;;;;;;47.75;26.55;;;;;;;6.88;57.55;100173.25;5053573;28;20109;-79
2022/03/26 03:41:56;;;;;;;52.10;28.52;;;;;;;6.90;58.20;100189.84;5063920;28;20051;-79
2022/03/26 03:44:21;;;;;;;40.30;24.48;;;;;;;6.93;58.23;100189.44;5055217;28;20036;-79
2022/03/26 03:46:47;;;;;;;43.22;25.98;;;;;;;6.89;58.29;100193.50;5052761;28;20070;-79
2022/03/26 03:49:12;;;;;;;46.47;25.90;;;;;;;6.89;57.93;100190.00;5069314;28;20029;-78
2022/03/26 03:51:38;;;;;;;45.70;24.85;;;;;;;6.86;57.89;100185.91;5073270;28;20124;-78
2022/03/26 03:54:03;;;;;;;42.22;23.77;;;;;;;6.81;57.97;100186.47;5053593;28;20422;-78
2022/03/26 03:56:28;;;;;;;45.92;26.30;;;;;;;6.83;58.05;100188.97;5060944;28;20029;-78
2022/03/26 03:58:54;;;;;;;50.63;27.08;;;;;;;6.82;58.40;100185.47;5064216;28;20146;-79
2022/03/26 04:01:19;;;;;;;55.38;29.13;;;;;;;6.75;58.01;100184.59;5066497;28;20035;-79
2022/03/26 04:03:44;;;;;;;42.03;24.75;;;;;;;6.79;58.73;100188.50;5052950;28;20041;-78
2022/03/26 04:06:09;;;;;;;48.15;26.23;;;;;;;6.72;58.19;100184.16;5059301;28;20025;-78
2022/03/26 04:08:35;;;;;;;51.60;29.58;;;;;;;6.76;58.24;100190.72;5061958;28;20068;-78
2022/03/26 04:11:01;;;;;;;47.08;26.35;;;;;;;6.76;58.86;100191.56;5060679;28;20406;-79
2022/03/26 04:13:26;;;;;;;46.17;25.60;;;;;;;6.71;58.24;100185.16;5056538;28;20564;-79
2022/03/26 04:15:51;;;;;;;46.65;25.00;;;;;;;6.70;58.60;100189.66;5058608;28;20151;-78
2022/03/26 04:18:16;;;;;;;51.95;27.45;;;;;;;6.68;58.70;100188.22;5047333;28;20047;-78
2022/03/26 04:20:42;;;;;;;45.08;24.40;;;;;;;6.66;58.42;100192.88;5091274;28;20400;-78
2022/03/26 04:23:08;;;;;;;55.03;26.05;;;;;;;6.60;58.31;100193.63;5053473;28;20430;-79
2022/03/26 04:25:33;;;;;;;43.35;25.35;;;;;;;6.61;59.00;100190.81;5064778;28;20036;-79
2022/03/26 04:27:59;;;;;;;50.30;27.85;;;;;;;6.61;58.78;100198.75;5063226;28;20395;-78
2022/03/26 04:30:24;;;;;;;53.28;26.25;;;;;;;6.61;58.75;100200.59;5065590;28;20039;-78
2022/03/26 04:32:49;;;;;;;48.90;25.77;;;;;;;6.56;58.70;100195.03;5077724;28;20499;-79
2022/03/26 04:35:15;;;;;;;45.28;25.42;;;;;;;6.56;58.43;100200.31;5062635;28;20392;-78
2022/03/26 04:37:41;;;;;;;50.22;25.85;;;;;;;6.55;58.82;100199.50;5036405;28;20127;-79
2022/03/26 04:40:09;;;;;;;45.85;24.63;;;;;;;6.54;58.56;100205.00;5074249;28;20052;-79
2022/03/26 04:42:35;;;;;;;46.53;24.85;;;;;;;6.57;58.53;100207.28;5060500;28;20029;-78
2022/03/26 04:45:00;;;;;;;42.35;24.42;;;;;;;6.51;58.44;100206.19;5077509;28;20032;-78
2022/03/26 04:47:26;;;;;;;47.90;25.02;;;;;;;6.51;58.33;100195.59;5062021;28;20033;-79
2022/03/26 04:49:51;;;;;;;48.72;26.67;;;;;;;6.54;59.25;100199.69;5076392;28;20388;-79
2022/03/26 04:52:17;;;;;;;47.97;26.20;;;;;;;6.45;58.42;100196.34;5076969;28;20105;-79
2022/03/26 04:54:43;;;;;;;53.50;26.67;;;;;;;6.46;58.81;100205.97;5063329;28;20042;-79
2022/03/26 04:57:08;;;;;;;46.38;26.17;;;;;;;6.41;58.63;100200.38;5060913;28;20040;-79
2022/03/26 04:59:33;;;;;;;45.97;24.75;;;;;;;6.40;58.92;100209.34;5063002;28;20067;-78
2022/03/26 05:01:59;;;;;;;47.03;25.83;;;;;;;6.38;59.00;100206.06;5059995;28;20051;-79
2022/03/26 05:04:24;;;;;;;42.30;24.15;;;;;;;6.41;58.57;100208.34;5043676;28;20503;-78
2022/03/26 05:06:49;;;;;;;43.70;25.00;;;;;;;6.39;59.12;100202.41;5061934;28;20044;-79
2022/03/26 05:09:15;;;;;;;42.28;24.40;;;;;;;6.40;59.06;100201.38;5059869;28;20039;-79
2022/03/26 05:11:40;;;;;;;49.85;26.52;;;;;;;6.35;58.74;100210.94;5061509;28;20039;-79
2022/03/26 05:14:05;;;;;;;48.67;26.35;;;;;;;6.36;59.00;100207.25;5063046;28;20032;-79
2022/03/26 05:16:31;;;;;;;55.67;27.08;;;;;;;6.34;58.67;100198.66;5047753;28;20025;-79
2022/03/26 05:18:56;;;;;;;51.28;25.40;;;;;;;6.35;58.85;100200.31;5063688;28;20033;-78
2022/03/26 05:21:22;;;;;;;46.70;25.33;;;;;;;6.30;59.29;100205.34;5061586;28;21392;-78
2022/03/26 05:23:47;;;;;;;45.55;25.27;;;;;;;6.27;59.11;100209.19;5065551;28;20029;-78
2022/03/26 05:26:12;;;;;;;42.38;23.17;;;;;;;6.26;59.41;100212.88;5054939;28;20036;-78
2022/03/26 05:28:38;;;;;;;42.55;24.20;;;;;;;6.28;59.18;100215.34;5061553;28;20098;-78
2022/03/26 05:31:03;;;;;;;47.78;24.88;;;;;;;6.27;58.88;100224.31;5065993;28;20032;-78
2022/03/26 05:33:28;;;;;;;44.28;24.35;;;;;;;6.25;58.99;100221.81;5046381;28;20044;-78
2022/03/26 05:35:54;;;;;;;43.58;24.98;;;;;;;6.25;59.37;100231.59;5056601;28;20523;-79
2022/03/26 05:38:19;;;;;;;40.35;23.90;;;;;;;6.21;59.43;100235.63;5059018;28;20033;-78
2022/03/26 05:40:45;;;;;;;48.08;26.13;;;;;;;6.22;59.52;100245.25;5046409;28;20042;-78
2022/03/26 05:43:11;;;;;;;47.63;25.35;;;;;;;6.21;59.44;100248.88;5062648;28;20268;-79
2022/03/26 05:45:36;;;;;;;43.53;25.33;;;;;;;6.17;59.51;100243.16;5062665;28;20028;-78
2022/03/26 05:48:04;;;;;;;45.00;23.83;;;;;;;6.14;59.52;100240.06;5060124;28;20031;-78
2022/03/26 05:50:30;;;;;;;45.60;24.40;;;;;;;6.17;59.69;100243.16;5062534;28;20029;-78
2022/03/26 05:52:56;;;;;;;49.95;25.90;;;;;;;6.18;59.79;100252.72;5035775;28;20032;-78
2022/03/26 05:55:21;;;;;;;53.25;27.00;;;;;;;6.17;59.75;100251.09;5060332;28;20083;-79
2022/03/26 05:57:47;;;;;;;46.35;23.65;;;;;;;6.20;59.89;100257.88;5059675;28;20036;-78
2022/03/26 06:00:13;;;;;;;42.97;23.60;;;;;;;6.18;59.79;100254.59;5065448;28;20454;-78
2022/03/26 06:02:39;;;;;;;44.17;24.10;;;;;;;6.23;59.96;100252.19;5051154;28;20056;-78
2022/03/26 06:05:05;;;;;;;45.80;24.85;;;;;;;6.22;60.33;100261.97;5037522;28;20032;-78
2022/03/26 06:07:31;;;;;;;53.38;25.65;;;;;;;6.22;60.52;100266.47;5060750;28;20126;-78
2022/03/26 06:09:56;;;;;;;44.22;24.63;;;;;;;6.23;60.23;100262.78;5066930;28;20071;-78
2022/03/26 06:12:22;;;;;;;48.85;24.58;;;;;;;6.28;60.22;100265.72;5066886;28;20499;-78
2022/03/26 06:14:48;;;;;;;49.63;26.40;;;;;;;6.24;60.24;100261.78;5065725;28;20024;-78
2022/03/26 06:17:14;;;;;;;46.97;26.13;;;;;;;6.24;60.21;100267.09;5059848;28;20069;-78
2022/03/26 06:19:40;;;;;;;39.97;23.90;;;;;;;6.29;60.38;100268.16;5055576;28;20093;-78
2022/03/26 06:22:06;;;;;;;48.35;27.63;;;;;;;6.30;60.15;100261.88;5052912;28;20040;-78
2022/03/26 06:24:31;;;;;;;50.78;25.88;;;;;;;6.29;60.32;100267.38;5046606;28;20442;-78
2022/03/26 06:26:56;;;;;;;46.28;25.50;;;;;;;6.33;60.74;100261.50;5051417;28;20557;-78
2022/03/26 06:29:22;;;;;;;45.33;24.88;;;;;;;6.34;60.61;100257.00;5049605;28;20119;-78
2022/03/26 06:31:48;;;;;;;47.70;26.85;;;;;;;6.37;60.48;100261.94;5060961;28;20035;-78
2022/03/26 06:34:14;;;;;;;48.38;26.75;;;;;;;6.37;61.02;100264.59;5064833;28;20036;-78
2022/03/26 06:36:40;;;;;;;49.13;26.40;;;;;;;6.38;60.92;100253.78;5070127;28;20038;-78
2022/03/26 06:39:06;;;;;;;54.80;27.67;;;;;;;6.43;60.98;100269.97;5062781;28;20032;-78
2022/03/26 06:41:32;;;;;;;53.40;26.25;;;;;;;6.42;61.39;100256.91;5078083;28;20106;-78
2022/03/26 06:43:57;;;;;;;56.47;28.13;;;;;;;6.40;61.03;100262.38;5070851;28;20033;-78
2022/03/26 06:46:23;;;;;;;54.85;27.63;;;;;;;6.43;61.29;100262.03;5054627;28;20044;-79
2022/03/26 06:48:48;;;;;;;48.15;26.55;;;;;;;6.46;61.86;100263.47;5068573;28;20036;-79
2022/03/26 06:51:14;;;;;;;48.22;26.40;;;;;;;6.44;62.16;100268.16;5078021;28;20056;-79
2022/03/26 06:53:39;;;;;;;56.33;28.08;;;;;;;6.48;62.58;100258.81;5070718;28;20145;-79
2022/03/26 06:56:06;;;;;;;52.33;28.13;;;;;;;6.55;61.99;100255.19;5058656;28;20059;-79
2022/03/26 06:58:33;;;;;;;48.45;25.50;;;;;;;6.56;61.69;100258.69;5071678;28;20159;-79
2022/03/26 07:01:01;;;;;;;41.72;24.30;;;;;;;6.59;62.25;100256.50;5057822;28;20025;-79
2022/03/26 07:03:27;;;;;;;49.22;26.67;;;;;;;6.54;62.31;100255.41;5055185;28;20028;-79
2022/03/26 07:05:52;;;;;;;47.08;24.73;;;;;;;6.57;62.38;100258.50;5056444;28;20046;-79
2022/03/26 07:08:17;;;;;;;54.05;26.67;;;;;;;6.64;62.22;100263.88;5059542;28;20035;-79
2022/03/26 07:10:45;;;;;;;51.80;27.35;;;;;;;6.63;62.32;100268.38;5069580;28;20140;-78
2022/03/26 07:13:18;;;;;;;45.67;26.80;;;;;;;6.56;62.54;100250.72;5070600;28;20028;-79
2022/03/26 07:15:43;;;;;;;53.70;27.60;;;;;;;6.69;62.31;100272.09;5073437;28;20079;-79
2022/03/26 07:18:09;;;;;;;50.53;28.20;;;;;;;6.74;62.62;100282.97;5039197;28;20472;-79
2022/03/26 07:20:35;;;;;;;49.45;27.73;;;;;;;6.76;62.15;100279.13;5067584;28;20498;-79
2022/03/26 07:23:01;;;;;;;53.20;28.50;;;;;;;6.78;62.77;100281.56;5050931;28;20032;-79
2022/03/26 07:25:26;;;;;;;49.45;28.42;;;;;;;6.80;62.89;100283.03;5059614;28;20040;-79
2022/03/26 07:27:51;;;;;;;51.33;27.65;;;;;;;6.82;62.64;100282.81;5060851;28;20039;-80
2022/03/26 07:30:17;;;;;;;52.65;30.13;;;;;;;6.87;62.96;100283.09;5063785;28;20389;-79
2022/03/26 07:32:42;;;;;;;54.17;29.25;;;;;;;6.89;62.78;100289.03;5079961;28;20063;-79
2022/03/26 07:35:08;;;;;;;52.83;27.48;;;;;;;6.93;62.71;100292.13;5037369;28;20033;-79
2022/03/26 07:37:34;;;;;;;58.25;30.67;;;;;;;7.00;62.86;100296.50;5040510;28;20035;-79
2022/03/26 07:40:00;;;;;;;49.78;28.80;;;;;;;7.01;62.85;100298.13;5038850;28;20036;-79
2022/03/26 07:42:26;;;;;;;55.75;29.70;;;;;;;7.05;62.84;100312.69;5055911;28;20635;-79
2022/03/26 07:44:51;;;;;;;57.55;28.27;;;;;;;7.12;62.33;100299.47;5056516;28;20504;-79
2022/03/26 07:47:17;;;;;;;50.00;28.70;;;;;;;7.12;62.79;100307.44;5060826;28;20028;-79
2022/03/26 07:49:42;;;;;;;55.25;28.08;;;;;;;7.18;62.85;100311.97;5027212;28;20075;-79
2022/03/26 07:52:08;;;;;;;53.15;28.98;;;;;;;7.23;62.99;100307.72;5058510;28;20052;-79
2022/03/26 07:54:33;;;;;;;52.80;28.63;;;;;;;7.22;62.31;100305.25;5039233;28;20124;-79
2022/03/26 07:56:59;;;;;;;52.58;29.23;;;;;;;7.28;62.39;100294.69;5055036;28;20052;-78
2022/03/26 07:59:24;;;;;;;54.17;31.20;;;;;;;7.26;62.86;100299.38;5041260;28;20107;-79
2022/03/26 08:01:49;;;;;;;67.38;34.25;;;;;;;7.33;63.47;100304.75;5014549;28;20029;-78
2022/03/26 08:04:15;;;;;;;69.75;34.00;;;;;;;7.37;63.70;100300.69;5034988;28;20507;-79
2022/03/26 08:06:40;;;;;;;69.90;34.78;;;;;;;7.38;63.62;100308.47;5057350;28;20035;-79
2022/03/26 08:09:05;;;;;;;64.90;34.38;;;;;;;7.45;64.45;100305.84;5048531;28;20028;-79
2022/03/26 08:11:31;;;;;;;64.35;34.42;;;;;;;7.50;64.84;100301.63;5052658;28;20412;-79
2022/03/26 08:13:56;;;;;;;62.22;33.03;;;;;;;7.50;64.89;100312.25;5024255;28;20494;-79
2022/03/26 08:16:21;;;;;;;63.47;34.03;;;;;;;7.57;64.59;100309.63;5034417;28;20041;-78
2022/03/26 08:18:47;;;;;;;78.15;36.72;;;;;;;7.64;64.81;100312.34;5040209;28;20037;-80
2022/03/26 08:21:14;;;;;;;62.33;35.10;;;;;;;7.65;65.38;100316.63;5053332;28;20040;-80
2022/03/26 08:23:40;;;;;;;63.53;33.50;;;;;;;7.74;64.92;100312.81;5061245;28;20025;-80
2022/03/26 08:26:22;;;;;;;63.58;32.88;;;;;;;7.79;64.50;100313.06;5062388;28;20486;-80
2022/03/26 08:28:51;;;;;;;65.78;35.78;;;;;;;7.89;64.12;100313.53;5059637;28;20055;-80
2022/03/26 08:31:17;;;;;;;65.82;34.13;;;;;;;7.99;64.05;100303.38;5058449;28;20030;-80
2022/03/26 08:33:44;;;;;;;63.58;36.47;;;;;;;8.05;64.00;100308.72;5018403;28;1184426;-79
2022/03/26 08:36:11;;;;;;;67.20;34.15;;;;;;;8.05;63.86;100307.91;5058542;28;20040;-79
2022/03/26 08:38:37;;;;;;;61.17;33.63;;;;;;;8.25;63.72;100304.38;5057155;28;20116;-79
2022/03/26 08:41:03;;;;;;;69.68;35.95;;;;;;;8.24;64.47;100302.69;5058349;28;20429;-79
2022/03/26 08:43:29;;;;;;;69.30;37.13;;;;;;;8.34;65.12;100306.84;5061669;28;20025;-79
2022/03/26 08:45:54;;;;;;;64.65;34.10;;;;;;;8.45;65.70;100307.13;5042873;28;20068;-79
2022/03/26 08:48:20;;;;;;;73.60;37.50;;;;;;;8.44;66.20;100310.78;5055922;28;20037;-78
2022/03/26 08:50:45;;;;;;;66.90;34.88;;;;;;;8.51;67.25;100308.97;5048185;28;20516;-82
2022/03/26 08:53:11;;;;;;;71.00;34.85;;;;;;;8.63;66.07;100298.56;5061979;28;20029;-83
2022/03/26 08:55:36;;;;;;;73.28;34.97;;;;;;;8.65;67.47;100310.66;5087125;28;20052;-83
2022/03/26 08:58:02;;;;;;;66.40;35.58;;;;;;;8.72;66.56;100314.16;5048576;28;20476;-83
2022/03/26 09:00:28;;;;;;;73.85;34.75;;;;;;;8.80;66.03;100308.63;5046495;28;20033;-83
2022/03/26 09:02:54;;;;;;;70.30;37.03;;;;;;;8.89;65.52;100304.78;5044880;28;20036;-82
2022/03/26 09:05:20;;;;;;;67.70;36.22;;;;;;;9.01;66.54;100311.16;5061307;28;20020;-82
2022/03/26 09:07:45;;;;;;;68.68;36.30;;;;;;;9.10;65.80;100302.97;5054626;28;20058;-82
2022/03/26 09:10:11;;;;;;;69.80;35.72;;;;;;;9.16;65.39;100302.97;5051405;28;20097;-83
2022/03/26 09:12:37;;;;;;;66.10;35.15;;;;;;;9.15;65.11;100308.53;5059497;28;20036;-82
2022/03/26 09:15:06;;;;;;;68.03;36.05;;;;;;;9.22;65.18;100309.34;5061215;28;20040;-83
2022/03/26 09:17:32;;;;;;;65.30;37.10;;;;;;;9.22;64.96;100290.72;5062586;28;20111;-83
2022/03/26 09:19:58;;;;;;;60.55;33.65;;;;;;;9.32;65.40;100296.44;5059898;28;20029;-83
2022/03/26 09:22:23;;;;;;;67.78;34.63;;;;;;;9.30;65.92;100290.50;5058727;28;20121;-83
2022/03/26 09:24:48;;;;;;;71.97;34.30;;;;;;;9.42;64.89;100292.34;5048130;28;20061;-82
2022/03/26 09:27:14;;;;;;;60.67;33.35;;;;;;;9.52;65.42;100286.59;5043058;28;20037;-83
2022/03/26 09:29:39;;;;;;;61.88;34.33;;;;;;;9.53;64.97;100293.56;5052981;28;20372;-83
2022/03/26 09:32:07;;;;;;;68.20;35.67;;;;;;;9.58;65.34;100291.09;5033307;28;20052;-83
2022/03/26 09:34:32;;;;;;;53.33;31.20;;;;;;;9.63;64.28;100286.78;5048150;28;20093;-83
2022/03/26 09:36:57;;;;;;;60.78;31.70;;;;;;;9.75;65.05;100292.31;5065270;28;20032;-83
2022/03/26 09:39:23;;;;;;;58.65;31.55;;;;;;;9.79;64.32;100277.53;5060865;28;20032;-82
2022/03/26 09:41:50;;;;;;;53.00;30.85;;;;;;;9.91;64.21;100289.22;5058598;28;20037;-83
2022/03/26 09:44:16;;;;;;;56.85;31.02;;;;;;;9.99;64.29;100288.16;5067313;28;20380;-83
2022/03/26 09:46:47;;;;;;;54.15;30.08;;;;;;;10.01;64.48;100275.41;5074014;28;20555;-83
2022/03/26 09:49:13;;;;;;;59.03;30.98;;;;;;;10.11;63.26;100279.31;5094949;28;20036;-83
2022/03/26 09:51:38;;;;;;;56.03;30.33;;;;;;;10.19;63.80;100278.28;5063201;28;20607;-83
2022/03/26 09:54:04;;;;;;;55.33;32.17;;;;;;;10.26;64.44;100271.91;5056558;28;20029;-83
2022/03/26 09:56:30;;;;;;;55.38;29.77;;;;;;;10.37;64.35;100278.41;5071680;28;20472;-83
2022/03/26 09:58:58;;;;;;;51.75;30.30;;;;;;;10.43;63.34;100275.72;5071080;28;20059;-83
2022/03/26 10:01:26;;;;;;;49.45;26.30;;;;;;;10.49;63.67;100274.03;5061481;28;20024;-83
2022/03/26 10:04:15;;;;;;;43.67;26.83;;;;;;;10.61;64.23;100275.00;5059486;28;20028;-82
2022/03/26 10:06:56;;;;;;;47.15;28.80;;;;;;;10.68;63.24;100267.75;5068745;28;20040;-83
2022/03/26 10:09:39;;;;;;;45.67;26.17;;;;;;;10.83;63.61;100256.81;5057414;28;20036;-83
2022/03/26 10:12:06;;;;;;;44.15;26.27;;;;;;;10.87;63.74;100258.84;5061044;28;20430;-83
2022/03/26 10:14:42;;;;;;;42.08;23.25;;;;;;;10.91;64.03;100248.53;5071219;28;20031;-83
2022/03/26 10:17:16;;;;;;;50.85;26.58;;;;;;;11.11;63.29;100255.38;5069159;28;20107;-83
2022/03/26 10:19:49;;;;;;;39.85;23.20;;;;;;;11.25;64.09;100256.88;5060343;28;20035;-83
2022/03/26 10:22:27;;;;;;;43.55;22.58;;;;;;;11.60;63.40;100237.69;5063725;28;20043;-83
2022/03/26 10:25:05;;;;;;;33.53;20.05;;;;;;;11.92;62.43;100244.56;5055456;28;20060;-83
2022/03/26 10:27:36;;;;;;;33.13;19.33;;;;;;;12.08;61.91;100243.16;5061530;28;20028;-83
2022/03/26 10:30:02;;;;;;;36.08;20.30;;;;;;;12.33;61.60;100243.84;5066691;28;20464;-84
2022/03/26 10:32:39;;;;;;;33.63;21.60;;;;;;;12.49;61.16;100244.03;5067701;28;20040;-84
2022/03/26 10:35:05;;;;;;;29.77;19.05;;;;;;;12.65;60.60;100239.91;5059885;28;20113;-84
2022/03/26 10:37:41;;;;;;;32.30;19.42;;;;;;;12.82;60.66;100250.81;5045223;28;20037;-84
2022/03/26 10:40:20;;;;;;;41.65;20.48;;;;;;;12.95;59.68;100230.00;5060300;28;20608;-84
2022/03/26 10:42:51;;;;;;;34.72;21.98;;;;;;;13.09;60.31;100233.31;5050116;28;20033;-84
2022/03/26 10:45:17;;;;;;;33.42;18.15;;;;;;;13.16;59.23;100228.66;5066602;28;20028;-84
2022/03/26 10:47:42;;;;;;;32.65;18.63;;;;;;;13.28;59.74;100232.19;5030504;28;20064;-84
2022/03/26 10:50:08;;;;;;;31.95;17.80;;;;;;;13.39;58.59;100226.81;5058402;28;20116;-84
2022/03/26 10:52:33;;;;;;;36.90;20.27;;;;;;;13.42;58.54;100225.53;5046103;28;20114;-84
2022/03/26 10:55:01;;;;;;;31.10;21.52;;;;;;;13.58;58.82;100226.69;5054199;28;20032;-84
2022/03/26 10:57:27;;;;;;;38.45;21.70;;;;;;;13.56;58.71;100218.06;5063659;28;20020;-84
2022/03/26 10:59:54;;;;;;;33.17;19.63;;;;;;;13.61;58.63;100224.34;5047842;28;20522;-84
2022/03/26 11:02:19;;;;;;;37.72;20.55;;;;;;;13.69;58.32;100229.38;5055314;28;20487;-84
2022/03/26 11:04:45;;;;;;;34.35;20.45;;;;;;;13.84;57.48;100223.53;5047307;28;20102;-83
2022/03/26 11:07:11;;;;;;;37.80;20.45;;;;;;;13.90;58.29;100222.56;5044439;28;20033;-84
2022/03/26 11:09:37;;;;;;;34.90;20.33;;;;;;;14.02;58.38;100205.38;5061068;28;20434;-84
2022/03/26 11:12:04;;;;;;;38.95;20.20;;;;;;;14.21;57.68;100219.47;5065121;28;20093;-85